This is the latest recevied weather packets stored in our database for station/object JR4VEV-13. If no packets are shown the sender has not sent any weather packets the latest 10 day(s).
| Time | Temp. | Humidity | Pressure | Rain* | Wind** | Luminosity | Snow |
|---|---|---|---|---|---|---|---|
| 1777872753 | 20° C | 41% | 1009.3 hPa | 0 mm | - | - | - |
| 1777872155 | 20° C | 41% | 1009.2 hPa | 0 mm | - | - | - |
| 1777871554 | 20° C | 41% | 1009.2 hPa | 0 mm | - | - | - |
| 1777870954 | 20° C | 41% | 1009.1 hPa | 0 mm | - | - | - |
| 1777870353 | 20° C | 41% | 1009 hPa | 0 mm | - | - | - |
| 1777844689 | 38.33° C | 100% | 0 hPa | 0 mm | - | - | - |
| 1777844089 | 15° C | 89% | 1005.2 hPa | 0 mm | - | - | - |
| 1777843488 | 15° C | 89% | 1004.8 hPa | 0 mm | - | - | - |
| 1777842888 | 14.44° C | 91% | 1004.8 hPa | 0 mm | - | - | - |
| 1777842290 | 13.89° C | 92% | 1004.6 hPa | 0 mm | - | - | - |
| 1777841689 | 14.44° C | 90% | 1004.6 hPa | 0 mm | - | - | - |
| 1777841089 | 13.89° C | 91% | 1004.3 hPa | 0 mm | - | - | - |
| 1777840488 | 13.89° C | 90% | 1004.1 hPa | 0 mm | - | - | - |
| 1777839888 | 14.44° C | 89% | 1003.9 hPa | 0 mm | - | - | - |
| 1777839290 | 13.89° C | 90% | 1003.9 hPa | 0 mm | - | - | - |
| 1777838688 | 14.44° C | 88% | 1004 hPa | 0 mm | - | - | - |
| 1777838088 | 14.44° C | 90% | 1004 hPa | 0 mm | - | - | - |
| 1777837489 | 13.89° C | 94% | 1003.9 hPa | 0 mm | - | - | - |
| 1777836889 | 13.89° C | 92% | 1003.7 hPa | 0 mm | - | - | - |
| 1777836289 | 13.89° C | 95% | 1003.5 hPa | 0 mm | - | - | - |
| 1777835689 | 13.89° C | 94% | 1003.4 hPa | 0 mm | - | - | - |
| 1777835088 | 13.89° C | 93% | 1003.5 hPa | 0 mm | - | - | - |
| 1777834489 | 14.44° C | 93% | 1003.4 hPa | 0 mm | - | - | - |
| 1777833888 | 14.44° C | 91% | 1003.3 hPa | 0 mm | - | - | - |
| 1777833288 | 15° C | 90% | 1002.9 hPa | 0 mm | - | - | - |
* Rain latest hour (hover to see other rain measurements)
** Current wind speed in m/s (hover to see current wind gust speed)